createdAt,value
2019-04-25T00:23:12.393Z,9.77
2019-04-25T00:25:56.803Z,9.76
2019-04-25T00:28:22.841Z,9.92
2019-04-25T00:30:48.643Z,9.98
2019-04-25T00:33:14.436Z,10.07
2019-04-25T00:35:43.236Z,10.04
2019-04-25T00:38:12.206Z,10.06
2019-04-25T00:40:39.466Z,10.14
2019-04-25T00:43:05.547Z,10.10
2019-04-25T00:45:31.704Z,10.10
2019-04-25T00:47:57.897Z,9.78
2019-04-25T00:50:23.982Z,10.05
2019-04-25T00:52:52.168Z,10.00
2019-04-25T00:55:26.940Z,10.01
2019-04-25T00:57:47.374Z,10.10
2019-04-25T01:00:32.597Z,10.05
2019-04-25T01:03:01.618Z,9.98
2019-04-25T01:05:28.118Z,10.01
2019-04-25T01:07:54.426Z,10.14
2019-04-25T01:10:21.440Z,10.08
2019-04-25T01:12:48.468Z,10.14
2019-04-25T01:15:15.377Z,10.21
2019-04-25T01:17:41.368Z,10.17
2019-04-25T01:20:07.927Z,10.16
2019-04-25T01:22:34.922Z,10.15
2019-04-25T01:25:00.846Z,10.08
2019-04-25T01:27:26.739Z,10.08
2019-04-25T01:29:54.186Z,10.05
2019-04-25T01:32:23.775Z,10.10
2019-04-25T01:34:54.661Z,10.17
2019-04-25T01:37:21.346Z,10.16
2019-04-25T01:39:49.282Z,10.00
2019-04-25T01:42:23.623Z,10.00
2019-04-25T01:44:51.628Z,10.00
2019-04-25T01:47:17.876Z,9.93
2019-04-25T01:49:43.970Z,9.85
2019-04-25T01:52:09.902Z,9.80
2019-04-25T01:54:35.707Z,9.79
2019-04-25T01:57:01.856Z,9.68
2019-04-25T01:59:27.691Z,9.67
2019-04-25T02:01:55.378Z,9.67
2019-04-25T02:04:21.255Z,9.67
2019-04-25T02:06:47.049Z,9.68
2019-04-25T02:09:14.231Z,9.65
2019-04-25T02:11:47.923Z,9.64
2019-04-25T02:14:14.059Z,9.64
2019-04-25T02:16:39.959Z,9.56
2019-04-25T02:19:06.092Z,9.41
2019-04-25T02:21:33.434Z,9.27
2019-04-25T02:24:00.212Z,9.10
2019-04-25T02:26:26.009Z,8.85
2019-04-25T02:28:54.826Z,8.69
2019-04-25T02:31:20.027Z,8.65
2019-04-25T02:33:45.852Z,8.65
2019-04-25T02:36:11.659Z,8.71
2019-04-25T02:38:37.770Z,8.78
2019-04-25T02:41:08.423Z,8.88
2019-04-25T02:43:31.828Z,8.89
2019-04-25T02:46:17.614Z,8.79
2019-04-25T02:49:02.884Z,8.76
2019-04-25T02:51:30.322Z,8.76
2019-04-25T02:53:58.028Z,8.75
2019-04-25T02:56:31.318Z,8.83
2019-04-25T02:58:54.141Z,8.78
2019-04-25T03:01:23.535Z,8.58
2019-04-25T03:03:51.011Z,8.44
2019-04-25T03:06:17.190Z,8.39
2019-04-25T03:08:46.041Z,8.22
2019-04-25T03:11:14.684Z,8.10
2019-04-25T03:13:39.892Z,8.08
2019-04-25T03:16:09.137Z,8.11
2019-04-25T03:18:35.845Z,8.07
2019-04-25T03:21:13.391Z,8.13
2019-04-25T03:23:35.490Z,8.11
2019-04-25T03:26:03.816Z,8.13
2019-04-25T03:28:29.958Z,8.15
2019-04-25T03:30:57.298Z,8.20
2019-04-25T03:33:25.734Z,8.21
2019-04-25T03:35:51.134Z,8.22
2019-04-25T03:38:16.926Z,8.24
2019-04-25T03:40:43.946Z,8.28
2019-04-25T03:43:09.865Z,8.28
2019-04-25T03:45:35.667Z,8.39
2019-04-25T03:48:05.645Z,8.46
2019-04-25T03:50:32.002Z,8.59
2019-04-25T03:52:58.078Z,8.73
2019-04-25T03:55:24.166Z,8.38
2019-04-25T03:57:53.946Z,8.78
2019-04-25T04:00:19.730Z,8.78
2019-04-25T04:02:45.564Z,8.77
2019-04-25T04:05:13.562Z,8.79
2019-04-25T04:07:43.492Z,8.80
2019-04-25T04:10:10.030Z,8.75
2019-04-25T04:12:35.896Z,8.69
2019-04-25T04:15:03.716Z,8.71
2019-04-25T04:17:38.036Z,8.68
2019-04-25T04:20:07.113Z,8.50
2019-04-25T04:22:35.368Z,8.45
2019-04-25T04:25:03.751Z,8.52
2019-04-25T04:27:29.877Z,8.52
2019-04-25T04:29:55.976Z,8.56
2019-04-25T04:32:21.786Z,8.60
2019-04-25T04:34:47.575Z,8.71
2019-04-25T04:37:14.806Z,8.79
2019-04-25T04:39:41.300Z,8.86
2019-04-25T04:42:07.696Z,8.96
2019-04-25T04:44:34.411Z,8.99
2019-04-25T04:47:00.239Z,9.00
2019-04-25T04:49:26.271Z,9.05
2019-04-25T04:51:52.069Z,9.02
2019-04-25T04:54:17.886Z,8.98
2019-04-25T04:56:43.942Z,9.03
2019-04-25T04:59:10.818Z,8.97
2019-04-25T05:01:55.763Z,8.95
2019-04-25T05:04:25.120Z,8.95
2019-04-25T05:06:59.302Z,8.91
2019-04-25T05:09:26.241Z,8.89
2019-04-25T05:11:52.054Z,8.91
2019-04-25T05:14:17.837Z,8.99
2019-04-25T05:16:43.652Z,9.02
2019-04-25T05:19:09.815Z,9.14
2019-04-25T05:21:35.907Z,9.23
2019-04-25T05:24:01.703Z,9.34
2019-04-25T05:26:27.809Z,9.41
2019-04-25T05:28:54.950Z,9.46
2019-04-25T05:31:28.296Z,9.59
2019-04-25T05:33:54.126Z,9.67
2019-04-25T05:36:19.933Z,9.71
2019-04-25T05:38:45.718Z,9.83
2019-04-25T05:41:20.275Z,10.03
2019-04-25T05:43:46.081Z,10.16
2019-04-25T05:46:13.227Z,10.28
2019-04-25T05:48:39.077Z,10.26
2019-04-25T05:51:04.877Z,10.41
2019-04-25T05:53:30.685Z,10.67
2019-04-25T05:55:56.737Z,10.86
2019-04-25T05:58:24.540Z,11.11
2019-04-25T06:00:50.762Z,10.73
2019-04-25T06:03:17.285Z,11.02
2019-04-25T06:05:43.471Z,11.00
2019-04-25T06:08:09.589Z,11.12
2019-04-25T06:10:37.403Z,11.07
2019-04-25T06:13:17.353Z,11.13
2019-04-25T06:15:45.818Z,11.34
2019-04-25T06:18:19.874Z,11.54
2019-04-25T06:20:45.958Z,11.67
2019-04-25T06:23:13.904Z,11.69
2019-04-25T06:25:40.078Z,11.73
2019-04-25T06:28:10.567Z,11.73
2019-04-25T06:30:36.633Z,11.90
2019-04-25T06:33:03.310Z,12.08
2019-04-25T06:35:29.649Z,12.31
2019-04-25T06:37:55.736Z,12.62
2019-04-25T06:40:25.151Z,12.78
2019-04-25T06:42:51.174Z,12.82
2019-04-25T06:45:36.065Z,12.91
2019-04-25T06:48:06.594Z,12.97
2019-04-25T06:50:34.120Z,13.03
2019-04-25T06:53:00.101Z,13.00
2019-04-25T06:55:27.210Z,13.02
2019-04-25T06:57:56.271Z,13.12
2019-04-25T07:00:24.251Z,13.24
2019-04-25T07:02:50.174Z,13.26
2019-04-25T07:05:26.612Z,13.27
2019-04-25T07:07:45.452Z,13.24
2019-04-25T07:10:13.328Z,13.56
2019-04-25T07:12:39.288Z,13.86
2019-04-25T07:15:08.773Z,14.33
2019-04-25T07:17:35.042Z,14.64
2019-04-25T07:20:03.952Z,14.98
2019-04-25T07:22:29.784Z,15.40
2019-04-25T07:24:55.574Z,15.79
2019-04-25T07:27:34.069Z,16.20
2019-04-25T07:30:03.915Z,16.65
2019-04-25T07:32:46.918Z,17.06
2019-04-25T07:35:13.489Z,17.66
2019-04-25T07:37:41.749Z,18.13
2019-04-25T07:40:07.856Z,17.87
2019-04-25T07:42:35.157Z,17.93
2019-04-25T07:45:04.003Z,17.34
2019-04-25T07:47:29.994Z,16.86
